createdAt,value
2019-04-23T00:00:37.563Z,13.01
2019-04-23T00:06:15.173Z,12.98
2019-04-23T00:11:39.406Z,12.87
2019-04-23T00:17:17.963Z,12.81
2019-04-23T00:22:34.774Z,12.57
2019-04-23T00:28:21.604Z,12.51
2019-04-23T00:45:39.813Z,12.74
2019-04-23T00:50:58.563Z,12.56
2019-04-23T01:08:38.837Z,12.29
2019-04-23T01:14:16.299Z,12.48
2019-04-23T01:25:51.343Z,12.48
2019-04-23T01:42:29.337Z,12.33
2019-04-23T01:47:50.086Z,12.36
2019-04-23T01:53:16.482Z,12.11
2019-04-23T01:59:24.709Z,11.97
2019-04-23T02:05:58.875Z,12.08
2019-04-23T02:12:11.636Z,11.94
2019-04-23T02:17:25.479Z,11.78
2019-04-23T02:30:35.213Z,11.77
2019-04-23T02:40:30.556Z,11.60
2019-04-23T02:45:59.036Z,11.60
2019-04-23T03:02:17.594Z,11.78
2019-04-23T03:12:18.537Z,11.60
2019-04-23T03:17:59.137Z,11.53
2019-04-23T03:39:56.667Z,11.49
2019-04-23T03:46:24.299Z,11.40
2019-04-23T03:58:06.376Z,11.32
2019-04-23T04:03:10.128Z,10.95
2019-04-23T04:14:38.544Z,11.28
2019-04-23T04:19:09.265Z,11.08
2019-04-23T04:41:15.896Z,11.33
2019-04-23T04:57:35.361Z,11.41
2019-04-23T05:03:01.127Z,11.40
2019-04-23T05:10:09.313Z,11.34
2019-04-23T05:19:13.767Z,11.48
2019-04-23T05:24:14.858Z,11.47
2019-04-23T05:29:34.145Z,11.67
2019-04-23T05:34:57.625Z,11.42
2019-04-23T06:31:40.812Z,13.34
2019-04-23T06:36:37.130Z,13.71
2019-04-23T06:46:39.533Z,14.07
2019-04-23T06:56:26.845Z,14.33
2019-04-23T07:01:17.693Z,14.53
2019-04-23T07:11:34.149Z,15.05
2019-04-23T07:16:09.492Z,15.05
2019-04-23T07:26:25.742Z,15.19
2019-04-23T07:31:14.118Z,15.28
2019-04-23T07:36:19.357Z,15.48
2019-04-23T07:41:24.981Z,15.61
2019-04-23T07:46:33.690Z,15.76
2019-04-23T07:51:19.592Z,15.88
2019-04-23T07:56:21.378Z,16.56
2019-04-23T08:01:14.128Z,17.27
2019-04-23T08:06:13.176Z,16.97
2019-04-23T08:16:23.338Z,16.51
2019-04-23T08:21:10.344Z,16.72
2019-04-23T08:26:35.822Z,17.20
2019-04-23T08:31:32.271Z,17.54
2019-04-23T08:36:29.547Z,17.96
2019-04-23T08:46:46.678Z,18.37
2019-04-23T08:51:54.760Z,18.51
2019-04-23T08:56:31.812Z,18.66
2019-04-23T09:01:41.024Z,18.73
2019-04-23T09:06:22.208Z,18.94
2019-04-23T09:11:35.864Z,18.96
2019-04-23T09:16:28.687Z,19.20
2019-04-23T09:26:08.900Z,19.18
2019-04-23T09:36:51.618Z,19.65
2019-04-23T09:42:02.297Z,19.94
2019-04-23T09:47:24.563Z,20.20
2019-04-23T09:52:07.350Z,20.67
2019-04-23T09:56:57.373Z,20.58
2019-04-23T10:01:49.945Z,20.64
2019-04-23T10:06:36.492Z,21.04
2019-04-23T10:11:28.524Z,20.99
2019-04-23T10:16:27.659Z,21.04
2019-04-23T10:21:21.757Z,21.47
2019-04-23T10:26:17.471Z,21.85
2019-04-23T10:31:14.532Z,21.88
2019-04-23T10:36:13.697Z,22.36
2019-04-23T10:41:09.789Z,22.23
2019-04-23T10:46:43.006Z,21.93
2019-04-23T10:51:59.774Z,21.97
2019-04-23T10:56:56.992Z,21.75
2019-04-23T11:01:53.043Z,21.85
2019-04-23T11:06:50.430Z,21.83
2019-04-23T11:11:53.868Z,21.56
2019-04-23T11:16:58.160Z,21.59
2019-04-23T11:21:58.235Z,21.70
2019-04-23T11:26:49.533Z,21.95
2019-04-23T11:31:59.019Z,22.04
2019-04-23T11:41:53.024Z,22.34
2019-04-23T11:57:07.975Z,22.36
2019-04-23T12:07:06.235Z,22.23
2019-04-23T12:17:13.359Z,22.13
2019-04-23T12:22:02.761Z,22.18
2019-04-23T12:32:30.904Z,21.69
2019-04-23T12:37:17.641Z,21.38
2019-04-23T12:42:27.847Z,21.34
2019-04-23T12:47:14.470Z,21.66
2019-04-23T12:52:12.886Z,21.84
2019-04-23T13:02:11.403Z,22.22
2019-04-23T13:06:58.335Z,22.51
2019-04-23T13:12:04.945Z,22.39
2019-04-23T13:17:05.528Z,22.36
2019-04-23T13:26:47.232Z,22.53
2019-04-23T13:31:39.917Z,22.70
2019-04-23T13:36:46.789Z,22.77
2019-04-23T13:41:42.095Z,22.81
2019-04-23T13:46:35.670Z,22.99
2019-04-23T13:52:02.416Z,22.87
2019-04-23T13:57:03.233Z,22.70
2019-04-23T14:01:33.548Z,22.66
2019-04-23T14:06:36.774Z,22.68
2019-04-23T14:11:30.856Z,22.69
2019-04-23T14:16:34.149Z,22.66
2019-04-23T14:26:33.997Z,22.55
2019-04-23T14:31:17.463Z,22.40
2019-04-23T14:36:36.396Z,22.35
2019-04-23T14:51:22.995Z,22.30
2019-04-23T15:06:20.147Z,22.23
2019-04-23T15:11:23.888Z,22.26
2019-04-23T15:16:20.871Z,22.26
2019-04-23T15:21:28.355Z,22.04
2019-04-23T15:27:02.535Z,21.92
2019-04-23T15:31:17.950Z,21.87
2019-04-23T15:36:16.096Z,21.89
2019-04-23T15:41:01.817Z,21.81
2019-04-23T15:46:02.923Z,21.62
2019-04-23T15:50:52.437Z,21.64
2019-04-23T15:55:56.155Z,21.56
2019-04-23T16:05:52.985Z,21.41
2019-04-23T16:11:36.459Z,21.33
2019-04-23T16:16:26.156Z,21.16
2019-04-23T16:21:20.669Z,21.04
2019-04-23T16:26:20.538Z,20.96
2019-04-23T16:31:26.422Z,20.84
2019-04-23T16:41:12.905Z,20.72
2019-04-23T16:46:07.128Z,20.71
2019-04-23T16:51:16.714Z,20.75
2019-04-23T16:56:13.501Z,20.73
2019-04-23T17:01:03.368Z,20.76
2019-04-23T17:11:02.756Z,20.65
2019-04-23T17:16:02.657Z,20.60
2019-04-23T17:20:53.050Z,20.50
2019-04-23T17:25:48.783Z,20.17
2019-04-23T17:31:03.981Z,19.90
2019-04-23T17:36:22.398Z,19.71
2019-04-23T17:41:15.700Z,19.63
2019-04-23T17:46:05.289Z,19.66
2019-04-23T17:51:11.035Z,19.75
2019-04-23T17:56:29.003Z,19.85
2019-04-23T18:06:21.640Z,19.81
2019-04-23T18:11:13.056Z,19.68
2019-04-23T18:16:09.611Z,19.63
2019-04-23T18:26:23.187Z,19.35
2019-04-23T18:31:23.434Z,19.16
2019-04-23T18:36:21.734Z,18.85
2019-04-23T18:41:10.564Z,18.51
2019-04-23T18:46:22.931Z,18.29
2019-04-23T18:51:34.146Z,18.19
2019-04-23T19:01:12.630Z,18.00
2019-04-23T19:06:32.525Z,17.85
2019-04-23T19:17:07.269Z,17.58
2019-04-23T19:22:09.088Z,17.47
2019-04-23T19:31:50.647Z,17.01
2019-04-23T19:41:54.221Z,17.04
2019-04-23T19:46:48.944Z,17.03
2019-04-23T19:51:44.279Z,17.07
2019-04-23T19:56:37.792Z,17.02
2019-04-23T20:11:27.819Z,17.23
2019-04-23T20:21:13.500Z,17.25
2019-04-23T20:26:17.582Z,17.27
2019-04-23T20:32:57.588Z,17.26
2019-04-23T20:36:58.083Z,17.39
2019-04-23T20:42:39.081Z,17.21
2019-04-23T20:47:48.622Z,16.84
2019-04-23T20:53:06.562Z,16.69
2019-04-23T21:27:01.688Z,15.92
2019-04-23T21:31:55.602Z,16.12
2019-04-23T21:37:14.169Z,15.83
2019-04-23T21:42:11.826Z,15.61
2019-04-23T21:47:01.003Z,15.44
2019-04-23T21:52:04.972Z,15.37
2019-04-23T21:56:55.333Z,15.34
2019-04-23T22:01:53.776Z,15.18
2019-04-23T22:06:54.069Z,14.96
2019-04-23T22:16:57.970Z,14.93
2019-04-23T22:21:50.229Z,14.50
2019-04-23T22:36:49.746Z,14.82
2019-04-23T22:56:35.539Z,14.29
2019-04-23T23:01:56.939Z,13.80
2019-04-23T23:06:46.605Z,13.99
2019-04-23T23:11:22.498Z,13.60
2019-04-23T23:21:24.189Z,13.55
2019-04-23T23:26:20.305Z,13.64
2019-04-23T23:36:24.472Z,13.51
2019-04-23T23:56:12.472Z,13.28
